Time;durP1;ratioP1;P1;durP2;ratioP2;P2;SDS_P1;SDS_P2;PMS_P1;PMS_P2;Temp;Humidity;BMP_temperature;BMP_pressure;BME280_temperature;BME280_humidity;BME280_pressure;Samples;Min_cycle;Max_cycle;Signal;HPM_P1;HPM_P2
2023/09/19 00:00:35;;;;;;;4.80;3.50;;;;;;;15.69;68.34;99723.06;6135077;23;19997;-93
2023/09/19 00:03:01;;;;;;;6.68;3.63;;;;;;;15.80;68.26;99742.75;6135234;23;20032;-95
2023/09/19 00:05:27;;;;;;;5.63;3.30;;;;;;;15.83;68.26;99750.28;6110790;23;20001;-93
2023/09/19 00:07:54;;;;;;;5.53;3.63;;;;;;;15.81;68.50;99758.72;6135825;23;20009;-93
2023/09/19 00:10:21;;;;;;;8.00;3.80;;;;;;;15.74;68.44;99742.78;6122957;23;20017;-93
2023/09/19 00:12:47;;;;;;;5.57;3.80;;;;;;;15.66;68.84;99729.06;6142030;23;20001;-92
2023/09/19 00:15:12;;;;;;;7.40;3.63;;;;;;;15.66;69.13;99734.47;6164893;23;20001;-94
2023/09/19 00:17:40;;;;;;;6.13;3.65;;;;;;;15.64;68.69;99731.25;6140589;23;20059;-94
2023/09/19 00:20:12;;;;;;;6.22;3.50;;;;;;;15.57;68.77;99727.00;6141106;23;20008;-94
2023/09/19 00:22:44;;;;;;;5.75;3.22;;;;;;;15.51;68.95;99725.44;6140509;23;20012;-93
2023/09/19 00:25:14;;;;;;;;;;;;;;;15.64;68.95;99747.53;6140892;23;19997;-93
2023/09/19 00:27:42;;;;;;;5.90;3.30;;;;;;;15.55;69.01;99733.81;6164217;23;19928;-94
2023/09/19 00:30:14;;;;;;;7.15;3.53;;;;;;;15.52;69.01;99727.06;6140558;23;20035;-92
2023/09/19 00:32:40;;;;;;;6.47;4.03;;;;;;;15.50;69.08;99726.56;6141338;23;20348;-93
2023/09/19 00:35:08;;;;;;;6.28;3.97;;;;;;;15.60;69.16;99735.66;6139696;23;20013;-93
2023/09/19 00:37:34;;;;;;;4.70;3.63;;;;;;;15.50;69.08;99720.31;6140114;23;20012;-92
2023/09/19 00:39:59;;;;;;;6.07;3.60;;;;;;;15.60;69.21;99730.22;6140112;23;20036;-94
2023/09/19 00:42:25;;;;;;;9.68;3.78;;;;;;;15.59;69.04;99721.28;6140301;23;20024;-93
2023/09/19 00:44:51;;;;;;;6.78;3.60;;;;;;;15.58;69.12;99733.22;6164861;23;20004;-94
2023/09/19 00:47:18;;;;;;;8.52;3.72;;;;;;;15.51;69.33;99724.66;6139311;23;20005;-94
2023/09/19 00:49:50;;;;;;;6.13;3.60;;;;;;;15.54;69.28;99734.91;6164461;23;20009;-95
2023/09/19 00:52:20;;;;;;;4.70;3.60;;;;;;;15.46;69.46;99730.13;6142058;23;20012;-94
2023/09/19 00:54:47;;;;;;;5.45;3.45;;;;;;;15.50;69.15;99740.13;6165747;23;20083;-95
2023/09/19 00:57:14;;;;;;;4.40;3.50;;;;;;;15.35;69.49;99718.59;6138551;23;20428;-93
2023/09/19 01:03:02;;;;;;;6.18;3.30;;;;;;;15.35;69.69;99726.75;6189575;23;20148;-94
2023/09/19 01:05:28;;;;;;;5.90;3.85;;;;;;;15.22;69.86;99708.47;6139887;23;20005;-95
2023/09/19 01:07:53;;;;;;;5.05;3.40;;;;;;;15.20;70.19;99732.38;6139234;23;20012;-94
2023/09/19 01:10:22;;;;;;;4.72;3.78;;;;;;;14.92;70.72;99716.69;6139019;23;20427;-93
2023/09/19 01:13:12;;;;;;;5.03;3.83;;;;;;;15.00;70.42;99723.38;6165048;23;20416;-94
2023/09/19 01:15:40;;;;;;;6.93;3.35;;;;;;;14.93;70.67;99712.88;6164251;23;20001;-93
2023/09/19 01:18:43;;;;;;;6.22;3.63;;;;;;;15.01;70.66;99727.72;6163338;23;20001;-93
2023/09/19 01:21:23;;;;;;;5.22;4.10;;;;;;;14.99;70.77;99718.25;6188325;23;20005;-93
2023/09/19 01:24:16;;;;;;;5.05;3.25;;;;;;;15.04;71.01;99729.03;6165485;23;20004;-93
2023/09/19 01:27:04;;;;;;;5.30;3.60;;;;;;;15.06;70.60;99724.13;6164225;23;20367;-94
2023/09/19 01:29:39;;;;;;;9.00;3.95;;;;;;;15.06;70.70;99716.78;6190579;23;20009;-93
2023/09/19 01:32:05;;;;;;;7.85;3.88;;;;;;;14.83;71.09;99690.50;6164069;23;20012;-94
2023/09/19 01:35:03;;;;;;;4.05;3.50;;;;;;;14.83;71.44;99683.16;6141005;23;20004;-94
2023/09/19 01:37:32;;;;;;;5.80;3.10;;;;;;;14.83;71.18;99687.78;6146126;23;20012;-94
2023/09/19 01:40:03;;;;;;;7.82;3.55;;;;;;;15.05;70.96;99722.53;6143062;23;20005;-93
2023/09/19 01:42:30;;;;;;;5.20;3.17;;;;;;;15.08;70.89;99708.38;6142169;23;20001;-93
2023/09/19 01:45:08;;;;;;;5.50;4.10;;;;;;;15.01;71.13;99699.78;6191056;23;20001;-93
2023/09/19 01:47:37;;;;;;;4.43;3.35;;;;;;;15.00;70.80;99701.69;6166839;23;20009;-94
2023/09/19 01:50:25;;;;;;;4.47;3.40;;;;;;;14.93;71.24;99691.19;6140558;23;20004;-94
2023/09/19 01:53:00;;;;;;;5.03;3.65;;;;;;;14.90;71.16;99696.38;6168011;23;20033;-94
2023/09/19 01:55:27;;;;;;;7.55;3.60;;;;;;;14.89;71.00;99700.19;6165257;23;20008;-92
2023/09/19 01:58:04;;;;;;;5.72;3.92;;;;;;;14.75;70.86;99681.09;6164768;23;20021;-93
2023/09/19 02:00:30;;;;;;;6.78;3.22;;;;;;;14.68;71.09;99680.66;6164771;23;19997;-92
2023/09/19 02:02:57;;;;;;;5.82;3.42;;;;;;;14.73;71.21;99686.81;6166001;23;20004;-92
2023/09/19 02:05:25;;;;;;;5.25;3.40;;;;;;;14.71;70.91;99680.88;6165738;23;20005;-93
2023/09/19 02:07:52;;;;;;;6.30;3.35;;;;;;;14.72;71.12;99684.41;6164710;23;20356;-92
2023/09/19 02:10:18;;;;;;;5.38;3.58;;;;;;;14.80;71.05;99701.94;6165759;23;20407;-92
2023/09/19 02:12:44;;;;;;;9.68;3.70;;;;;;;14.75;71.17;99686.53;6166669;23;20024;-92
2023/09/19 02:15:10;;;;;;;6.95;3.40;;;;;;;14.70;71.28;99690.09;6165997;23;20037;-92
2023/09/19 02:17:35;;;;;;;11.05;3.55;;;;;;;14.65;71.52;99692.88;6140063;23;20024;-93
2023/09/19 02:20:03;;;;;;;7.80;3.60;;;;;;;14.47;71.54;99672.69;6164625;23;20001;-92
2023/09/19 02:22:29;;;;;;;8.68;3.53;;;;;;;14.55;71.47;99682.94;6165219;23;19997;-91
2023/09/19 02:24:58;;;;;;;4.03;3.22;;;;;;;14.52;71.76;99678.06;6141052;23;20458;-92
2023/09/19 02:27:23;;;;;;;5.57;3.65;;;;;;;14.49;71.76;99677.84;6164859;23;20012;-93
2023/09/19 02:29:49;;;;;;;5.05;3.30;;;;;;;14.68;71.67;99694.19;6141113;23;19997;-92
2023/09/19 02:32:14;;;;;;;5.82;3.45;;;;;;;14.59;71.66;99680.47;6139754;23;20005;-91
2023/09/19 02:34:41;;;;;;;9.65;3.47;;;;;;;14.53;71.55;99666.13;6142368;23;20041;-91
2023/09/19 02:37:08;;;;;;;5.95;3.42;;;;;;;14.51;71.69;99662.91;6165082;23;20064;-93
2023/09/19 02:39:34;;;;;;;10.13;3.65;;;;;;;14.43;71.71;99666.25;6141000;23;20088;-92
2023/09/19 02:41:59;;;;;;;5.70;3.28;;;;;;;14.41;71.61;99665.72;6165782;23;19996;-93
2023/09/19 02:44:25;;;;;;;9.65;3.60;;;;;;;14.38;71.49;99657.34;6165490;23;20029;-93
2023/09/19 02:46:51;;;;;;;10.65;4.15;;;;;;;14.31;71.88;99661.19;6140432;23;20024;-94
2023/09/19 02:49:17;;;;;;;5.57;3.40;;;;;;;14.31;71.55;99653.06;6141183;23;20009;-93
2023/09/19 02:51:47;;;;;;;5.40;3.50;;;;;;;14.32;72.15;99664.75;6140253;23;20000;-93
2023/09/19 02:54:13;;;;;;;5.00;3.50;;;;;;;14.23;72.02;99655.59;6139468;23;20062;-92
2023/09/19 02:56:42;;;;;;;8.55;3.90;;;;;;;14.11;72.19;99651.38;6164898;23;20024;-92
2023/09/19 02:59:09;;;;;;;6.18;3.47;;;;;;;14.17;72.15;99657.53;6188961;23;20005;-93
2023/09/19 03:01:38;;;;;;;4.25;3.58;;;;;;;14.15;72.43;99659.72;6141258;23;20078;-92
2023/09/19 03:04:08;;;;;;;7.45;3.60;;;;;;;14.14;72.38;99656.22;6189785;23;20068;-92
2023/09/19 03:06:34;;;;;;;6.85;3.40;;;;;;;14.12;72.52;99649.47;6140902;23;20001;-92
2023/09/19 03:08:59;;;;;;;11.13;3.80;;;;;;;14.03;72.47;99651.16;6164056;23;20044;-92
2023/09/19 03:11:25;;;;;;;7.05;3.78;;;;;;;14.13;72.60;99667.31;6164475;23;20423;-92
2023/09/19 03:13:52;;;;;;;7.10;3.40;;;;;;;14.03;72.74;99662.00;6164741;23;20053;-90
2023/09/19 03:16:18;;;;;;;7.55;3.65;;;;;;;14.05;72.54;99663.34;6140318;23;20040;-91
2023/09/19 03:18:44;;;;;;;9.02;3.75;;;;;;;14.01;72.98;99666.88;6139138;23;20009;-90
2023/09/19 03:21:10;;;;;;;7.82;3.50;;;;;;;14.00;72.74;99654.47;6139847;23;20005;-90
2023/09/19 03:23:36;;;;;;;11.07;3.65;;;;;;;13.90;72.34;99648.06;6139455;23;20005;-91
2023/09/19 03:26:01;;;;;;;5.70;3.72;;;;;;;14.02;72.49;99682.84;6161732;23;20001;-91
2023/09/19 03:28:29;;;;;;;9.77;3.72;;;;;;;13.86;72.88;99667.84;6139409;23;20005;-91
2023/09/19 03:31:02;;;;;;;6.97;4.38;;;;;;;13.67;72.94;99665.81;6138832;23;20013;-91
2023/09/19 03:33:28;;;;;;;5.70;3.50;;;;;;;13.74;73.11;99670.91;6139793;23;20000;-91
2023/09/19 03:35:54;;;;;;;6.60;3.88;;;;;;;13.73;73.11;99672.00;6140017;23;20344;-92
2023/09/19 03:38:21;;;;;;;9.00;5.57;;;;;;;13.70;73.11;99670.66;6139405;23;20041;-91
2023/09/19 03:40:47;;;;;;;17.95;14.73;;;;;;;13.69;73.58;99677.16;6163697;23;19996;-91
2023/09/19 03:43:13;;;;;;;22.58;17.23;;;;;;;13.74;73.84;99687.16;6139002;23;20008;-92
2023/09/19 03:45:38;;;;;;;29.13;22.20;;;;;;;13.66;73.80;99685.84;6138311;23;20007;-92
2023/09/19 03:48:10;;;;;;;24.20;20.88;;;;;;;13.70;73.89;99691.50;6140203;23;20001;-91
2023/09/19 03:50:36;;;;;;;;;;;;;;;13.80;73.84;99693.31;6138635;23;20016;-92
2023/09/19 03:53:02;;;;;;;25.27;21.10;;;;;;;13.72;73.94;99689.34;6162119;23;20335;-92
2023/09/19 03:55:30;;;;;;;28.10;24.25;;;;;;;13.65;74.07;99678.00;6139696;23;20089;-92
2023/09/19 03:57:56;;;;;;;9.45;5.68;;;;;;;13.60;74.09;99680.75;6140079;23;20020;-93
2023/09/19 04:00:24;;;;;;;7.75;5.50;;;;;;;13.69;73.97;99698.00;6164503;23;20431;-92
2023/09/19 04:02:49;;;;;;;7.68;5.80;;;;;;;13.66;74.01;99698.56;6140506;23;20068;-92
2023/09/19 04:05:15;;;;;;;10.35;5.30;;;;;;;13.46;74.23;99688.69;6140150;23;20000;-92
2023/09/19 04:07:40;;;;;;;6.95;4.60;;;;;;;13.39;74.01;99678.16;6140440;23;20432;-93
2023/09/19 04:10:08;;;;;;;17.83;6.10;;;;;;;13.51;74.09;99696.78;6138751;23;20040;-92
2023/09/19 04:12:34;;;;;;;9.48;4.97;;;;;;;13.32;74.31;99696.59;6139018;23;20063;-91
2023/09/19 04:15:00;;;;;;;15.07;6.75;;;;;;;13.06;74.83;99677.75;6138951;23;20001;-92
2023/09/19 04:17:25;;;;;;;10.60;5.57;;;;;;;13.07;74.88;99683.97;6139221;23;20037;-92
2023/09/19 04:19:51;;;;;;;16.52;5.90;;;;;;;13.04;74.54;99688.03;6139845;23;20027;-91
2023/09/19 04:22:16;;;;;;;6.72;4.82;;;;;;;12.99;75.53;99706.16;6140405;23;20043;-91
2023/09/19 04:24:42;;;;;;;9.68;5.03;;;;;;;12.61;76.75;99693.03;6138398;23;20000;-91
2023/09/19 04:27:09;;;;;;;12.95;6.43;;;;;;;12.58;76.59;99682.00;6165913;23;20012;-90
2023/09/19 04:29:35;;;;;;;10.10;5.28;;;;;;;12.53;77.00;99667.41;6164186;23;20079;-92
2023/09/19 04:32:01;;;;;;;14.73;6.40;;;;;;;12.81;76.95;99689.47;6138002;23;20059;-93
2023/09/19 04:34:27;;;;;;;6.70;5.32;;;;;;;12.88;76.46;99686.47;6139090;23;20056;-93
2023/09/19 04:36:52;;;;;;;18.33;5.82;;;;;;;13.00;75.97;99689.69;6164940;23;20016;-92
2023/09/19 04:39:18;;;;;;;21.17;6.88;;;;;;;12.98;75.66;99667.53;6138064;23;20389;-94
2023/09/19 04:41:45;;;;;;;14.40;6.57;;;;;;;13.26;75.70;99697.66;6163559;23;20004;-92
2023/09/19 04:44:13;;;;;;;13.32;9.65;;;;;;;13.29;75.41;99680.94;6164569;23;20001;-94
2023/09/19 04:46:40;;;;;;;13.40;6.07;;;;;;;13.36;75.01;99669.81;6140306;23;20432;-94
2023/09/19 04:49:07;;;;;;;10.70;6.13;;;;;;;13.37;74.80;99666.81;6165063;23;20079;-93
2023/09/19 04:51:36;;;;;;;15.98;6.75;;;;;;;13.48;75.03;99678.38;6144827;23;20005;-94
2023/09/19 04:54:02;;;;;;;15.98;6.10;;;;;;;13.51;74.68;99670.53;6141400;23;20001;-93
2023/09/19 04:56:29;;;;;;;17.20;6.43;;;;;;;13.50;74.80;99668.09;6141538;23;20016;-95
2023/09/19 04:58:57;;;;;;;10.50;5.03;;;;;;;13.66;74.43;99682.34;6188743;23;20001;-92
2023/09/19 05:01:23;;;;;;;11.55;8.20;;;;;;;13.73;74.27;99678.19;6166448;23;20472;-93
2023/09/19 05:03:55;;;;;;;14.38;8.18;;;;;;;13.80;74.33;99677.91;6140963;23;19997;-93
2023/09/19 05:06:40;;;;;;;;;;;;;;;13.90;74.40;99691.38;6143535;23;20016;-96
2023/09/19 05:09:56;;;;;;;19.02;8.10;;;;;;;14.09;74.02;99698.78;6194563;23;19935;-95
2023/09/19 05:12:21;;;;;;;14.77;7.35;;;;;;;14.21;73.85;99685.66;6164475;23;20021;-92
2023/09/19 05:14:47;;;;;;;26.52;10.32;;;;;;;14.30;73.90;99677.75;6114329;23;20012;-93
2023/09/19 05:17:20;;;;;;;14.00;8.35;;;;;;;14.33;73.63;99672.56;6139151;23;20005;-94
2023/09/19 05:19:46;;;;;;;19.70;10.77;;;;;;;14.40;72.99;99674.97;6138094;23;20002;-92
2023/09/19 05:22:14;;;;;;;20.27;11.40;;;;;;;14.51;72.41;99673.75;6139421;23;20480;-94
2023/09/19 05:24:41;;;;;;;16.83;7.82;;;;;;;14.46;71.63;99646.69;6142938;23;20005;-92
2023/09/19 05:27:28;;;;;;;16.83;5.70;;;;;;;14.56;71.39;99653.94;6116412;23;20061;-93
2023/09/19 05:33:23;;;;;;;12.40;5.07;;;;;;;14.46;71.27;99660.22;6137456;23;20084;-95
2023/09/19 05:35:53;;;;;;;12.00;5.35;;;;;;;14.69;71.08;99674.13;6088831;23;20480;-93
2023/09/19 05:38:24;;;;;;;18.67;12.85;;;;;;;14.86;70.90;99679.91;6090547;23;20089;-93
2023/09/19 05:40:50;;;;;;;18.80;7.88;;;;;;;14.97;71.19;99675.16;6087596;23;19986;-94
2023/09/19 05:43:19;;;;;;;22.35;7.28;;;;;;;15.03;70.94;99659.63;6106248;23;20421;-91
2023/09/19 05:46:23;;;;;;;30.65;10.98;;;;;;;15.18;70.63;99656.72;6084062;23;20009;-93
2023/09/19 05:48:49;;;;;;;7.20;5.13;;;;;;;15.29;70.09;99643.81;6123302;23;20001;-89
2023/09/19 05:51:28;;;;;;;9.35;5.40;;;;;;;15.60;69.86;99670.50;6108639;23;20010;-91
2023/09/19 05:54:45;;;;;;;12.13;5.35;;;;;;;15.73;69.29;99670.59;6111511;23;20001;-94
2023/09/19 06:00:57;;;;;;;8.93;4.60;;;;;;;15.82;67.64;99640.88;6062629;23;20026;-93
2023/09/19 06:06:55;;;;;;;4.55;3.30;;;;;;;16.36;66.54;99663.03;6025461;23;20030;-94
2023/09/19 06:13:59;;;;;;;5.00;3.67;;;;;;;16.71;65.16;99660.75;6113995;23;20025;-96
2023/09/19 07:47:50;;;;;;;5.05;3.20;;;;;;;21.03;52.52;99614.66;6222838;22;20024;-93
2023/09/19 07:54:16;;;;;;;8.55;3.47;;;;;;;21.31;52.11;99588.34;6191723;23;20087;-92
2023/09/19 07:56:53;;;;;;;17.33;12.50;;;;;;;21.37;50.13;99575.22;6227890;23;19996;-92
2023/09/19 08:00:03;;;;;;;;;;;;;;;;;;;;;
2023/09/19 08:02:37;;;;;;;9.77;3.80;;;;;;;21.64;50.17;99575.81;6255518;23;20046;-94
2023/09/19 08:05:20;;;;;;;4.00;2.60;;;;;;;21.69;50.14;99568.19;6207483;23;19995;-95
2023/09/19 08:07:52;;;;;;;;;;;;;;;21.97;49.44;99589.50;6181712;23;20016;-93
2023/09/19 08:10:20;;;;;;;5.90;2.80;;;;;;;22.02;49.08;99581.06;6203694;23;19911;-93
2023/09/19 08:13:25;;;;;;;10.02;3.70;;;;;;;22.10;48.74;99569.19;6178555;23;20004;-94
2023/09/19 08:16:29;;;;;;;;;;;;;;;;;;;;;
2023/09/19 08:18:55;;;;;;;4.50;2.75;;;;;;;22.29;46.17;99556.91;6233639;23;20035;-92
2023/09/19 08:22:10;;;;;;;7.90;2.85;;;;;;;22.35;46.38;99537.13;6177905;23;20004;-96
2023/09/19 08:25:11;;;;;;;5.18;3.70;;;;;;;22.64;46.20;99546.25;6136161;23;20001;-93
2023/09/19 08:27:50;;;;;;;4.38;2.70;;;;;;;22.73;44.43;99538.69;6104197;23;20021;-95
2023/09/19 08:31:39;;;;;;;;;;;;;;;;;;;;;
2023/09/19 08:34:09;;;;;;;7.15;3.33;;;;;;;22.98;42.92;99539.41;6127190;23;20005;-92
2023/09/19 08:40:38;;;;;;;;;;;;;;;;;;;;;
2023/09/19 08:43:55;;;;;;;;;;;;;;;;;;;;;
2023/09/19 08:46:41;;;;;;;8.23;3.17;;;;;;;23.34;40.23;99523.97;6059704;23;20041;-93
2023/09/19 08:49:47;;;;;;;3.80;2.65;;;;;;;23.49;39.57;99547.16;6030775;23;20443;-93
2023/09/19 08:52:20;;;;;;;3.22;2.30;;;;;;;23.50;36.38;99532.25;6076422;23;20415;-93
2023/09/19 08:54:58;;;;;;;4.68;2.28;;;;;;;23.56;37.23;99532.81;6074440;23;20164;-92
2023/09/19 08:57:27;;;;;;;4.30;2.78;;;;;;;23.55;38.04;99518.28;6110473;23;20005;-94
2023/09/19 09:00:21;;;;;;;4.65;2.83;;;;;;;23.66;38.17;99514.97;6111034;23;20010;-92
2023/09/19 09:02:47;;;;;;;4.35;2.55;;;;;;;23.66;37.09;99501.25;6108523;23;20009;-93
2023/09/19 09:05:22;;;;;;;;;;;;;;;;;;;;;
2023/09/19 09:07:57;;;;;;;4.00;2.95;;;;;;;23.96;36.40;99509.91;6197607;23;20043;-94
2023/09/19 09:10:28;;;;;;;13.18;8.82;;;;;;;24.06;37.25;99498.38;6176213;23;20000;-93
2023/09/19 09:12:57;;;;;;;7.28;3.05;;;;;;;24.10;36.90;99495.72;6200561;23;20011;-96
2023/09/19 09:15:58;;;;;;;;;;;;;;;;;;;;;
2023/09/19 09:21:48;;;;;;;3.30;2.10;;;;;;;24.39;33.15;99483.41;6130728;23;20025;-93
2023/09/19 09:25:03;;;;;;;;;;;;;;;;;;;;;
2023/09/19 09:34:48;;;;;;;5.47;2.78;;;;;;;25.14;32.96;99493.28;6102346;23;20117;-93
2023/09/19 09:37:20;;;;;;;4.05;2.65;;;;;;;25.36;33.80;99494.53;6078125;23;20016;-93
2023/09/19 09:50:39;;;;;;;;;;;;;;;;;;;;;
2023/09/19 09:53:34;;;;;;;4.20;2.15;;;;;;;26.19;32.14;99495.97;6018350;23;20051;-94
2023/09/19 09:57:20;;;;;;;4.18;2.85;;;;;;;26.23;32.62;99496.81;6019148;23;20069;-93
2023/09/19 10:04:44;;;;;;;5.00;2.83;;;;;;;26.21;32.61;99486.16;5916465;24;20018;-93
2023/09/19 10:07:22;;;;;;;13.23;9.02;;;;;;;25.98;33.26;99458.59;5946398;24;20011;-94
2023/09/19 10:09:48;;;;;;;6.75;4.22;;;;;;;26.09;33.22;99463.47;5948163;24;20086;-94
2023/09/19 10:12:42;;;;;;;6.47;4.75;;;;;;;26.02;34.78;99453.09;6093558;23;20005;-94
2023/09/19 10:15:10;;;;;;;7.07;2.60;;;;;;;26.13;32.76;99469.84;6062317;23;20006;-94
2023/09/19 10:17:45;;;;;;;3.53;2.00;;;;;;;26.04;32.51;99442.50;6068339;23;20001;-93
2023/09/19 10:23:29;;;;;;;3.22;2.15;;;;;;;26.45;32.59;99466.75;6092464;23;20087;-94
2023/09/19 10:25:57;;;;;;;3.70;2.17;;;;;;;26.51;32.83;99466.06;6076667;23;20010;-96
2023/09/19 10:28:41;;;;;;;2.88;2.08;;;;;;;26.47;31.89;99462.44;6043890;23;20020;-95
2023/09/19 10:31:14;;;;;;;2.40;1.73;;;;;;;26.27;31.31;99449.94;6120547;23;20044;-95
2023/09/19 10:33:50;;;;;;;5.20;2.70;;;;;;;26.14;32.59;99452.09;6148887;23;20032;-96
2023/09/19 10:36:25;;;;;;;6.90;2.60;;;;;;;26.20;33.67;99461.66;6146201;23;20088;-95
2023/09/19 10:39:01;;;;;;;;;;;;;;;;;;;;;
2023/09/19 10:48:43;;;;;;;;;;;;;;;;;;;;;
2023/09/19 10:54:39;;;;;;;3.80;2.83;;;;;;;26.24;33.88;99445.16;5998726;23;20011;-94
2023/09/19 10:57:27;;;;;;;5.43;2.50;;;;;;;26.22;34.38;99437.25;6083584;23;20030;-95
2023/09/19 11:03:54;;;;;;;;;;;;;;;;;;;;;
2023/09/19 11:06:23;;;;;;;3.92;2.60;;;;;;;26.45;33.58;99417.84;6171522;23;20016;-94
2023/09/19 11:10:13;;;;;;;;;;;;;;;;;;;;;
2023/09/19 11:16:58;;;;;;;;;;;;;;;;;;;;;
2023/09/19 11:29:56;;;;;;;3.58;1.77;;;;;;;27.30;30.81;99405.44;5901240;23;20015;-95
2023/09/19 11:33:31;;;;;;;;;;;;;;;;;;;;;
2023/09/19 11:52:38;;;;;;;8.43;3.30;;;;;;;27.81;30.78;99404.69;6229246;22;20024;-94
2023/09/19 11:55:21;;;;;;;;;;;;;;;;;;;;;
2023/09/19 12:23:43;;;;;;;3.35;2.35;;;;;;;28.07;30.38;99351.09;6170801;23;20023;-95
2023/09/19 12:30:15;;;;;;;;;;;;;;;;;;;;;
2023/09/19 12:33:20;;;;;;;;;;;;;;;;;;;;;
2023/09/19 12:40:02;;;;;;;5.40;3.00;;;;;;;28.13;29.99;99352.31;5802792;24;20022;-94
2023/09/19 12:42:44;;;;;;;5.55;2.30;;;;;;;28.01;29.84;99347.09;5785897;24;20008;-94
2023/09/19 12:45:17;;;;;;;5.60;2.35;;;;;;;27.87;29.94;99334.00;5802349;24;20559;-93
2023/09/19 12:48:31;;;;;;;3.85;2.42;;;;;;;28.05;30.26;99358.97;5814668;24;20027;-96
2023/09/19 12:53:48;;;;;;;;;;;;;;;;;;;;;
2023/09/19 12:57:12;;;;;;;8.80;3.20;;;;;;;27.63;31.34;99332.59;6216005;23;20019;-93
2023/09/19 12:59:49;;;;;;;81.88;71.35;;;;;;;27.70;31.11;99329.09;6046686;23;20030;-95
2023/09/19 13:02:18;;;;;;;9.55;6.55;;;;;;;27.66;31.30;99337.34;6183526;23;20065;-93
2023/09/19 13:11:10;;;;;;;9.65;7.32;;;;;;;27.76;29.79;99353.25;6219394;23;19985;-95
2023/09/19 13:13:53;;;;;;;7.35;2.63;;;;;;;27.53;29.42;99336.09;6210880;23;20000;-93
2023/09/19 13:16:45;;;;;;;4.88;1.98;;;;;;;27.34;28.99;99334.38;6207280;23;20026;-92
2023/09/19 13:19:57;;;;;;;3.65;2.28;;;;;;;27.47;29.11;99359.75;6126750;23;20009;-96
2023/09/19 13:26:14;;;;;;;9.50;2.40;;;;;;;27.44;29.77;99328.13;6111991;23;20001;-94
2023/09/19 13:28:55;;;;;;;;;;;;;;;;;;;;;
2023/09/19 13:32:11;;;;;;;2.55;1.98;;;;;;;27.36;28.95;99329.25;6031077;23;20033;-95
2023/09/19 13:34:46;;;;;;;4.72;2.08;;;;;;;27.31;28.83;99337.88;6004458;23;20008;-95
2023/09/19 13:37:31;;;;;;;2.95;2.15;;;;;;;27.22;28.60;99318.84;6159286;23;20007;-94
2023/09/19 13:40:34;;;;;;;5.50;3.10;;;;;;;27.18;28.48;99326.28;6207106;23;19999;-95
2023/09/19 13:43:11;;;;;;;3.40;2.38;;;;;;;27.28;29.27;99341.44;6208176;23;20070;-94
2023/09/19 13:46:40;;;;;;;;;;;;;;;;;;;;;
2023/09/19 13:52:39;;;;;;;2.90;2.13;;;;;;;27.02;28.99;99315.50;6065033;23;20033;-95
2023/09/19 13:55:24;;;;;;;;;;;;;;;;;;;;;
2023/09/19 13:58:05;;;;;;;3.00;2.20;;;;;;;27.02;27.73;99315.50;6106882;23;20034;-94
2023/09/19 14:00:58;;;;;;;2.93;2.00;;;;;;;27.04;26.80;99320.63;6108255;23;20002;-94
2023/09/19 14:03:58;;;;;;;3.75;2.63;;;;;;;27.06;27.15;99305.28;6101557;23;20002;-94
2023/09/19 14:06:39;;;;;;;;;;;;;;;;;;;;;
2023/09/19 14:09:19;;;;;;;;;;;;;;;;;;;;;
2023/09/19 14:11:58;;;;;;;7.47;4.82;;;;;;;27.24;27.43;99324.00;6002108;23;20016;-96
2023/09/19 14:14:50;;;;;;;4.28;2.67;;;;;;;27.35;27.47;99313.81;5974331;24;20034;-95
2023/09/19 14:17:37;;;;;;;5.50;3.60;;;;;;;27.48;26.24;99317.88;6052404;23;20035;-94
2023/09/19 14:20:24;;;;;;;6.65;3.38;;;;;;;27.63;26.87;99318.78;6051726;23;20081;-95
2023/09/19 14:30:56;;;;;;;;;;;;;;;;;;;;;
2023/09/19 14:34:27;;;;;;;;;;;;;;;;;;;;;
2023/09/19 14:40:54;;;;;;;;;;;;;;;;;;;;;
2023/09/19 14:43:59;;;;;;;2.90;1.98;;;;;;;27.31;26.95;99311.06;5896228;24;19956;-96
2023/09/19 14:46:26;;;;;;;3.35;2.33;;;;;;;27.42;26.75;99317.44;5855110;24;20010;-95
2023/09/19 14:49:05;;;;;;;3.63;2.25;;;;;;;27.33;26.85;99303.16;5806714;24;20479;-94
2023/09/19 14:52:15;;;;;;;3.83;2.40;;;;;;;27.45;26.72;99337.22;5938442;24;20004;-96
2023/09/19 15:04:22;;;;;;;;;;;;;;;;;;;;;
2023/09/19 15:07:28;;;;;;;5.97;3.25;;;;;;;27.18;28.31;99309.72;6078508;23;20030;-94
2023/09/19 15:10:09;;;;;;;5.65;2.90;;;;;;;27.00;28.19;99291.00;6025151;23;20011;-93
2023/09/19 15:12:41;;;;;;;7.22;4.75;;;;;;;26.98;28.00;99303.63;5980056;23;20003;-96
2023/09/19 15:18:48;;;;;;;5.72;3.00;;;;;;;26.83;29.01;99307.41;5974930;23;20002;-93
2023/09/19 15:21:44;;;;;;;7.38;3.17;;;;;;;26.66;29.05;99290.28;5999834;23;20003;-93
2023/09/19 15:28:07;;;;;;;3.60;2.20;;;;;;;26.62;28.83;99333.63;5996351;23;20007;-94
2023/09/19 15:31:52;;;;;;;3.92;2.40;;;;;;;26.38;28.89;99297.06;6013409;23;20086;-96
2023/09/19 15:34:19;;;;;;;5.55;2.08;;;;;;;26.38;29.25;99313.63;5880803;24;20046;-93
2023/09/19 15:36:46;;;;;;;8.60;2.65;;;;;;;26.37;30.18;99316.75;5962965;23;20026;-94
2023/09/19 15:39:14;;;;;;;13.45;3.92;;;;;;;26.41;31.10;99334.94;5974123;23;20505;-94
2023/09/19 15:42:11;;;;;;;6.13;3.15;;;;;;;26.40;31.08;99336.13;6048713;23;20006;-94
2023/09/19 15:44:36;;;;;;;7.57;3.40;;;;;;;26.16;31.46;99314.53;6100091;23;20002;-93
2023/09/19 15:47:03;;;;;;;5.18;2.88;;;;;;;26.09;30.90;99308.94;6082466;23;20006;-92
2023/09/19 15:49:29;;;;;;;9.35;4.10;;;;;;;26.06;32.04;99318.75;6059608;23;20416;-92
2023/09/19 15:51:57;;;;;;;7.30;3.10;;;;;;;26.08;32.34;99323.88;6058104;23;20005;-96
2023/09/19 15:54:23;;;;;;;11.57;3.25;;;;;;;25.86;32.33;99308.97;6112621;23;20006;-94
2023/09/19 15:56:51;;;;;;;15.73;8.90;;;;;;;25.69;33.85;99299.28;6063873;23;20013;-95
2023/09/19 15:59:16;;;;;;;11.00;3.70;;;;;;;25.60;34.56;99297.59;6058851;23;20022;-92
2023/09/19 16:01:43;;;;;;;5.35;2.70;;;;;;;25.58;34.12;99313.72;6081984;23;20009;-93
2023/09/19 16:04:09;;;;;;;6.85;2.90;;;;;;;25.59;33.50;99320.03;6059994;23;20037;-93
2023/09/19 16:06:35;;;;;;;7.75;3.03;;;;;;;25.47;33.28;99312.75;6061543;23;20002;-91
2023/09/19 16:09:03;;;;;;;7.72;3.63;;;;;;;25.43;34.43;99314.66;6056519;23;20006;-92
2023/09/19 16:11:29;;;;;;;5.72;3.60;;;;;;;25.24;34.61;99304.53;6083696;23;20091;-95
2023/09/19 16:13:55;;;;;;;7.07;3.90;;;;;;;25.12;34.12;99313.75;6115995;23;20005;-92
2023/09/19 16:16:25;;;;;;;11.45;4.38;;;;;;;25.10;34.54;99313.31;6114992;23;20093;-94
2023/09/19 16:19:15;;;;;;;18.65;6.95;;;;;;;24.89;34.36;99308.22;6118951;23;20009;-94
2023/09/19 16:21:42;;;;;;;12.98;5.32;;;;;;;24.97;34.38;99337.50;6150538;23;20049;-96
2023/09/19 16:24:10;;;;;;;11.82;3.90;;;;;;;24.90;34.85;99340.13;6118891;23;19996;-96
2023/09/19 16:26:37;;;;;;;18.23;4.55;;;;;;;24.76;35.40;99332.41;6119432;23;20001;-94
2023/09/19 16:29:02;;;;;;;10.75;3.90;;;;;;;24.69;35.49;99331.44;6117883;23;20005;-92
2023/09/19 16:31:41;;;;;;;7.07;3.50;;;;;;;24.64;35.81;99338.06;6140799;23;20004;-93
2023/09/19 16:34:06;;;;;;;6.72;2.78;;;;;;;24.51;36.22;99323.66;6122984;23;20380;-94
2023/09/19 16:36:32;;;;;;;8.57;2.90;;;;;;;24.44;36.32;99330.94;6116044;23;20005;-93
2023/09/19 16:38:59;;;;;;;8.60;3.47;;;;;;;24.44;36.58;99344.69;6115445;23;20028;-92
2023/09/19 16:41:25;;;;;;;10.85;4.22;;;;;;;24.31;36.87;99327.53;6116808;23;20015;-93
2023/09/19 16:43:50;;;;;;;8.20;3.35;;;;;;;24.36;36.86;99355.56;6140583;23;20389;-92
2023/09/19 16:46:17;;;;;;;11.23;4.20;;;;;;;24.21;37.65;99343.44;6115755;23;20008;-94
2023/09/19 16:48:47;;;;;;;10.13;3.65;;;;;;;24.18;38.65;99351.66;6115837;23;20008;-94
2023/09/19 16:51:13;;;;;;;11.18;3.85;;;;;;;24.00;39.59;99343.78;6140658;23;20001;-92
2023/09/19 16:53:40;;;;;;;9.40;4.22;;;;;;;24.08;40.14;99357.72;6163415;23;20344;-93
2023/09/19 16:56:10;;;;;;;9.63;4.43;;;;;;;23.97;40.56;99365.75;6116630;23;20016;-93
2023/09/19 16:58:36;;;;;;;13.13;3.85;;;;;;;23.80;40.88;99344.91;6139882;23;20005;-93
2023/09/19 17:01:02;;;;;;;9.55;3.80;;;;;;;23.83;40.94;99346.94;6141042;23;20017;-93
2023/09/19 17:03:27;;;;;;;6.97;3.65;;;;;;;23.82;41.25;99350.06;6164077;23;20023;-93
2023/09/19 17:05:58;;;;;;;7.43;3.13;;;;;;;23.82;41.07;99366.53;6166488;23;20088;-92
2023/09/19 17:08:30;;;;;;;9.85;3.67;;;;;;;23.77;41.20;99367.63;6141841;23;20095;-91
2023/09/19 17:11:02;;;;;;;7.90;3.60;;;;;;;23.62;40.69;99352.72;6118704;23;20008;-93
2023/09/19 17:13:28;;;;;;;5.30;2.97;;;;;;;23.55;36.13;99360.78;6166340;23;20336;-92
2023/09/19 17:16:07;;;;;;;4.47;2.53;;;;;;;23.41;34.14;99336.53;6139821;23;20439;-94
2023/09/19 17:18:33;;;;;;;8.15;3.45;;;;;;;23.50;40.43;99364.59;6119511;23;20024;-92